Time;durP1;ratioP1;P1;durP2;ratioP2;P2;SDS_P1;SDS_P2;PMS_P1;PMS_P2;Temp;Humidity;BMP_temperature;BMP_pressure;BME280_temperature;BME280_humidity;BME280_pressure;Samples;Min_cycle;Max_cycle;Signal;HPM_P1;HPM_P2
2024/01/22 00:02:13;;;;;;;1.05;0.90;;;6.60;99.90;;;;;;5156493;27;20424;-75
2024/01/22 00:04:38;;;;;;;1.05;1.00;;;6.80;99.90;;;;;;5156254;27;20041;-75
2024/01/22 00:07:04;;;;;;;1.10;1.00;;;7.50;99.90;;;;;;5156619;27;20034;-74
2024/01/22 00:09:29;;;;;;;0.80;0.80;;;6.60;99.90;;;;;;5156703;27;20146;-75
2024/01/22 00:11:55;;;;;;;0.80;0.80;;;6.70;99.90;;;;;;5156237;27;20050;-75
2024/01/22 00:14:21;;;;;;;0.80;0.80;;;7.80;99.90;;;;;;5156234;27;20485;-75
2024/01/22 00:16:47;;;;;;;0.80;0.80;;;6.70;99.90;;;;;;5156043;27;20077;-75
2024/01/22 00:19:12;;;;;;;0.80;0.80;;;6.70;99.90;;;;;;5155977;27;20447;-74
2024/01/22 00:21:42;;;;;;;2.08;1.98;;;6.70;99.90;;;;;;5155925;27;20046;-74
2024/01/22 00:24:09;;;;;;;0.90;0.90;;;6.80;99.90;;;;;;5155958;27;20103;-74
2024/01/22 00:26:35;;;;;;;1.10;1.02;;;6.80;99.90;;;;;;5156187;27;20130;-74
2024/01/22 00:29:00;;;;;;;0.80;0.80;;;6.80;99.90;;;;;;5156000;27;20562;-75
2024/01/22 00:31:26;;;;;;;0.90;0.90;;;6.80;99.90;;;;;;5155883;27;20125;-75
2024/01/22 00:33:51;;;;;;;0.90;0.90;;;6.90;99.90;;;;;;5155737;27;20497;-74
2024/01/22 00:36:17;;;;;;;0.90;0.90;;;7.50;99.90;;;;;;5155760;27;20500;-74
2024/01/22 00:38:43;;;;;;;0.90;0.90;;;7.60;99.90;;;;;;5155223;27;20039;-75
2024/01/22 00:41:09;;;;;;;0.90;0.90;;;6.90;99.90;;;;;;5155594;27;20118;-75
2024/01/22 00:43:36;;;;;;;0.90;0.90;;;7.00;99.90;;;;;;5155646;27;20127;-75
2024/01/22 00:46:02;;;;;;;0.90;0.90;;;7.00;99.90;;;;;;5155618;27;20039;-74
2024/01/22 00:48:28;;;;;;;0.90;0.90;;;7.00;99.90;;;;;;5155549;27;20482;-75
2024/01/22 00:50:54;;;;;;;0.90;0.90;;;7.00;99.90;;;;;;5155768;27;20051;-75
2024/01/22 00:53:19;;;;;;;0.90;0.90;;;7.10;99.90;;;;;;5137096;27;20450;-74
2024/01/22 00:55:45;;;;;;;0.80;0.80;;;8.00;99.90;;;;;;5155789;27;20073;-74
2024/01/22 00:58:11;;;;;;;0.90;0.90;;;7.10;99.90;;;;;;5155455;27;20089;-74
2024/01/22 01:00:37;;;;;;;0.90;0.90;;;7.10;99.90;;;;;;5155356;27;20074;-74
2024/01/22 01:03:02;;;;;;;0.90;0.90;;;7.10;99.90;;;;;;5155392;27;20534;-74
2024/01/22 01:05:28;;;;;;;1.02;0.93;;;7.10;99.90;;;;;;5155193;27;20386;-74
2024/01/22 01:07:54;;;;;;;0.90;0.90;;;7.70;99.90;;;;;;5155406;27;20050;-74
2024/01/22 01:10:20;;;;;;;6.40;1.10;;;7.20;99.90;;;;;;5155305;27;20038;-76
2024/01/22 01:12:45;;;;;;;4.45;4.13;;;7.20;99.90;;;;;;5155662;27;20050;-75
2024/01/22 01:15:11;;;;;;;0.90;0.90;;;7.20;99.90;;;;;;5155291;27;20045;-75
2024/01/22 01:17:37;;;;;;;1.00;0.90;;;7.20;99.90;;;;;;5155242;27;20414;-74
2024/01/22 01:20:03;;;;;;;1.00;1.00;;;7.20;99.90;;;;;;5155132;27;20489;-74
2024/01/22 01:22:30;;;;;;;0.80;0.80;;;7.30;99.90;;;;;;5155217;27;20050;-74
2024/01/22 01:24:56;;;;;;;0.80;0.80;;;7.30;99.90;;;;;;5154975;27;20406;-75
2024/01/22 01:27:21;;;;;;;0.90;0.90;;;7.20;99.90;;;;;;5155096;27;20043;-74
2024/01/22 01:29:47;;;;;;;0.80;0.80;;;7.20;99.90;;;;;;5155145;27;20045;-74
2024/01/22 01:32:13;;;;;;;0.80;0.80;;;7.40;99.90;;;;;;5136721;27;20049;-74
2024/01/22 01:34:38;;;;;;;1.77;1.63;;;7.70;99.90;;;;;;5154782;27;20078;-75
2024/01/22 01:37:04;;;;;;;1.02;1.00;;;7.30;99.90;;;;;;5155472;27;20038;-73
2024/01/22 01:39:30;;;;;;;0.90;0.90;;;7.30;99.90;;;;;;5154974;27;20458;-75
2024/01/22 01:41:55;;;;;;;0.90;0.90;;;7.30;99.90;;;;;;5155066;27;20049;-74
2024/01/22 01:44:46;;;;;;;1.55;1.30;;;7.50;99.90;;;;;;5155038;27;20500;-74
2024/01/22 01:47:12;;;;;;;0.90;0.90;;;8.30;99.90;;;;;;5154984;27;20046;-75
2024/01/22 01:49:37;;;;;;;0.80;0.80;;;7.50;99.90;;;;;;5154934;27;20053;-75
2024/01/22 01:52:06;;;;;;;0.90;0.90;;;8.40;99.90;;;;;;5157634;27;20047;-74
2024/01/22 01:54:32;;;;;;;0.90;0.90;;;7.90;99.90;;;;;;5159057;27;20134;-74
2024/01/22 01:56:57;;;;;;;1.70;1.60;;;8.60;99.90;;;;;;5158982;27;20058;-75
2024/01/22 01:59:24;;;;;;;1.00;0.90;;;7.60;99.90;;;;;;5158773;27;20497;-75
2024/01/22 02:01:50;;;;;;;0.90;0.90;;;7.60;99.90;;;;;;5158620;27;20043;-74
2024/01/22 02:04:15;;;;;;;0.82;0.82;;;7.60;99.90;;;;;;5158690;27;20562;-74
2024/01/22 02:06:41;;;;;;;0.88;0.88;;;8.00;99.90;;;;;;5158464;27;20088;-74
2024/01/22 02:09:07;;;;;;;0.98;0.98;;;7.70;99.90;;;;;;5158861;27;20071;-74
2024/01/22 02:11:32;;;;;;;0.80;0.80;;;7.70;99.90;;;;;;5140076;27;20096;-75
2024/01/22 02:13:58;;;;;;;0.90;0.90;;;7.90;99.90;;;;;;5158541;27;20034;-74
2024/01/22 02:16:23;;;;;;;0.80;0.80;;;7.70;99.90;;;;;;5158455;27;20041;-74
2024/01/22 02:18:49;;;;;;;0.90;0.90;;;7.60;99.90;;;;;;5158115;27;20042;-74
2024/01/22 02:21:15;;;;;;;0.90;0.90;;;7.80;99.90;;;;;;5158144;27;20042;-74
2024/01/22 02:23:40;;;;;;;0.88;0.88;;;7.70;99.90;;;;;;5158580;27;20149;-74
2024/01/22 02:26:06;;;;;;;0.88;0.88;;;7.70;99.90;;;;;;5158337;27;20043;-75
2024/01/22 02:28:32;;;;;;;0.80;0.80;;;7.70;99.90;;;;;;5158183;27;20046;-74
2024/01/22 02:30:59;;;;;;;1.10;1.00;;;8.70;99.90;;;;;;5158110;27;20053;-75
2024/01/22 02:33:24;;;;;;;0.85;0.85;;;7.80;99.90;;;;;;5158594;27;20039;-75
2024/01/22 02:35:50;;;;;;;0.90;0.90;;;7.70;99.90;;;;;;5157770;27;20501;-74
2024/01/22 02:38:16;;;;;;;1.20;1.10;;;8.30;99.90;;;;;;5158081;27;20046;-75
2024/01/22 02:40:42;;;;;;;0.85;0.85;;;7.70;99.90;;;;;;5158000;27;20045;-75
2024/01/22 02:43:07;;;;;;;0.95;0.95;;;7.70;99.90;;;;;;5157933;27;20130;-75
2024/01/22 02:45:33;;;;;;;1.33;1.23;;;7.80;99.90;;;;;;5157571;27;20039;-76
2024/01/22 02:47:58;;;;;;;0.90;0.90;;;7.80;99.90;;;;;;5157804;27;20042;-74
2024/01/22 02:50:24;;;;;;;1.00;1.00;;;7.80;99.90;;;;;;5157573;27;20054;-74
2024/01/22 02:52:50;;;;;;;1.23;1.10;;;8.40;99.90;;;;;;5157836;27;20047;-74
2024/01/22 02:55:16;;;;;;;1.10;1.00;;;7.80;99.90;;;;;;5157775;27;20085;-73
2024/01/22 02:57:42;;;;;;;1.30;1.20;;;7.70;99.90;;;;;;5157590;27;20082;-74
2024/01/22 03:00:08;;;;;;;0.80;0.80;;;8.40;99.90;;;;;;5157486;27;20160;-74
2024/01/22 03:02:34;;;;;;;0.90;0.90;;;7.70;99.90;;;;;;5157036;27;20493;-74
2024/01/22 03:05:00;;;;;;;0.90;0.90;;;7.70;99.90;;;;;;5157924;27;20086;-75
2024/01/22 03:07:25;;;;;;;0.93;0.93;;;7.70;99.90;;;;;;5157467;27;20279;-74
2024/01/22 03:09:51;;;;;;;0.93;0.93;;;8.80;99.90;;;;;;5157411;27;20051;-75
2024/01/22 03:12:16;;;;;;;0.90;0.90;;;7.80;99.90;;;;;;5157405;27;20084;-75
2024/01/22 03:14:42;;;;;;;1.10;1.00;;;7.80;99.90;;;;;;5157302;27;20042;-75
2024/01/22 03:17:09;;;;;;;0.90;0.90;;;7.80;99.90;;;;;;5157183;27;20131;-74
2024/01/22 03:19:36;;;;;;;1.05;1.00;;;7.80;99.90;;;;;;5157567;27;20390;-74
2024/01/22 03:22:02;;;;;;;1.02;0.95;;;;;;;;;;5157604;27;20046;-74
2024/01/22 03:24:28;;;;;;;0.90;0.90;;;7.80;99.90;;;;;;5157671;27;20038;-74
2024/01/22 03:26:53;;;;;;;0.95;0.93;;;7.80;99.90;;;;;;5157086;27;20501;-74
2024/01/22 03:29:19;;;;;;;1.20;1.10;;;8.70;99.90;;;;;;5157014;27;20496;-75
2024/01/22 03:31:44;;;;;;;1.10;1.00;;;7.80;99.90;;;;;;5156717;27;20083;-74
2024/01/22 03:34:10;;;;;;;1.00;0.90;;;7.80;99.90;;;;;;5156942;27;20551;-73
2024/01/22 03:36:36;;;;;;;0.90;0.90;;;7.80;99.90;;;;;;5157146;27;20034;-75
2024/01/22 03:39:02;;;;;;;1.20;1.10;;;8.40;99.90;;;;;;5156831;27;20061;-74
2024/01/22 03:41:28;;;;;;;0.90;0.90;;;7.80;99.90;;;;;;5156778;27;20047;-74
2024/01/22 03:43:53;;;;;;;1.10;1.00;;;8.20;99.90;;;;;;5156641;27;20122;-74
2024/01/22 03:46:19;;;;;;;1.20;1.10;;;7.70;99.90;;;;;;5156639;27;20089;-74
2024/01/22 03:48:44;;;;;;;0.82;0.82;;;7.70;99.90;;;;;;5156600;27;20034;-74
2024/01/22 03:51:11;;;;;;;0.90;0.90;;;7.60;99.90;;;;;;5156642;27;20105;-75
2024/01/22 03:53:36;;;;;;;0.90;0.90;;;7.70;99.90;;;;;;5156506;27;20055;-74
2024/01/22 03:56:04;;;;;;;1.10;1.00;;;7.70;99.90;;;;;;5156813;27;20385;-74
2024/01/22 03:58:30;;;;;;;2.58;2.38;;;7.70;99.90;;;;;;5156528;27;20435;-74
2024/01/22 04:00:55;;;;;;;0.98;0.95;;;7.80;99.90;;;;;;5155958;27;20038;-74
2024/01/22 04:03:21;;;;;;;1.02;0.98;;;8.80;99.90;;;;;;5156777;27;20058;-74
2024/01/22 04:05:46;;;;;;;0.90;0.90;;;7.90;99.90;;;;;;5156304;27;20034;-75
2024/01/22 04:08:12;;;;;;;0.90;0.90;;;7.80;99.90;;;;;;5156249;27;20038;-74
2024/01/22 04:10:38;;;;;;;0.90;0.90;;;7.80;99.90;;;;;;5155925;27;20037;-74
2024/01/22 04:13:03;;;;;;;0.80;0.80;;;7.90;99.90;;;;;;5155943;27;20091;-75
2024/01/22 04:15:29;;;;;;;1.20;1.10;;;7.90;99.90;;;;;;5155612;27;20135;-75
2024/01/22 04:17:54;;;;;;;0.90;0.90;;;7.80;99.90;;;;;;5156106;27;20478;-75
2024/01/22 04:20:20;;;;;;;1.10;1.02;;;8.50;99.90;;;;;;5155890;27;20104;-75
2024/01/22 04:22:45;;;;;;;1.10;1.00;;;7.90;99.90;;;;;;5156045;27;20126;-76
2024/01/22 04:25:11;;;;;;;0.90;0.90;;;7.90;99.90;;;;;;5155932;27;20165;-74
2024/01/22 04:27:37;;;;;;;0.90;0.90;;;8.50;99.90;;;;;;5155914;27;20077;-74
2024/01/22 04:30:03;;;;;;;0.90;0.90;;;7.90;99.90;;;;;;5155604;27;20038;-74
2024/01/22 04:32:28;;;;;;;1.07;1.00;;;8.00;99.90;;;;;;5155853;27;20035;-73
2024/01/22 04:34:54;;;;;;;1.10;1.00;;;8.00;99.90;;;;;;5155816;27;20513;-74
2024/01/22 04:37:21;;;;;;;0.95;0.95;;;8.00;99.90;;;;;;5155824;27;20099;-74
2024/01/22 04:39:46;;;;;;;1.00;1.00;;;8.00;99.90;;;;;;5155655;27;20058;-74
2024/01/22 04:42:12;;;;;;;0.90;0.90;;;7.90;99.90;;;;;;5155751;27;20390;-75
2024/01/22 04:44:38;;;;;;;0.90;0.90;;;8.00;99.90;;;;;;5155643;27;20031;-74
2024/01/22 04:47:03;;;;;;;1.00;0.90;;;8.10;99.90;;;;;;5155646;27;20038;-75
2024/01/22 04:49:29;;;;;;;1.63;1.52;;;8.10;99.90;;;;;;5156220;27;20458;-74
2024/01/22 04:51:55;;;;;;;0.88;0.88;;;8.10;99.90;;;;;;5156206;27;20099;-74
2024/01/22 04:54:21;;;;;;;0.90;0.90;;;8.10;99.90;;;;;;5155887;27;20042;-75
2024/01/22 04:56:47;;;;;;;1.60;1.00;;;8.10;99.90;;;;;;5155529;27;20038;-74
2024/01/22 04:59:13;;;;;;;0.90;0.90;;;8.10;99.90;;;;;;5155140;27;20530;-74
2024/01/22 05:01:40;;;;;;;0.80;0.80;;;8.10;99.90;;;;;;5155358;27;20035;-75
2024/01/22 05:04:05;;;;;;;0.90;0.90;;;9.10;99.90;;;;;;5155455;27;20038;-74
2024/01/22 05:06:31;;;;;;;0.80;0.80;;;8.10;99.90;;;;;;5155340;27;20042;-75
2024/01/22 05:08:57;;;;;;;0.90;0.90;;;8.30;99.90;;;;;;5155671;27;20419;-75
2024/01/22 05:11:23;;;;;;;1.10;1.00;;;8.30;99.90;;;;;;5155286;27;20514;-75
2024/01/22 05:13:53;;;;;;;1.43;1.20;;;9.20;99.90;;;;;;5155407;27;20042;-75
2024/01/22 05:16:20;;;;;;;0.90;0.90;;;8.30;99.90;;;;;;5155496;27;20043;-75
2024/01/22 05:18:47;;;;;;;0.88;0.88;;;8.30;99.90;;;;;;5155162;27;20497;-75
2024/01/22 05:21:13;;;;;;;0.90;0.90;;;8.50;99.90;;;;;;5155341;27;20428;-73
2024/01/22 05:23:40;;;;;;;1.27;1.17;;;8.50;99.90;;;;;;5155440;27;20035;-75
2024/01/22 05:26:06;;;;;;;0.90;0.90;;;8.50;99.90;;;;;;5157920;27;20100;-75
2024/01/22 05:28:32;;;;;;;0.90;0.90;;;8.60;99.90;;;;;;5159359;27;20042;-74
2024/01/22 05:30:59;;;;;;;0.80;0.80;;;8.80;99.90;;;;;;5159370;27;20031;-75
2024/01/22 05:33:24;;;;;;;0.80;0.80;;;8.60;99.90;;;;;;5159358;27;20280;-74
2024/01/22 05:35:50;;;;;;;0.85;0.85;;;8.60;99.90;;;;;;5159303;27;20363;-75
2024/01/22 05:38:16;;;;;;;0.80;0.80;;;9.50;99.90;;;;;;5159218;27;20050;-75
2024/01/22 05:40:41;;;;;;;0.70;0.70;;;9.70;99.90;;;;;;5159309;27;20470;-76
2024/01/22 05:43:07;;;;;;;0.85;0.85;;;8.80;99.90;;;;;;5159069;27;20099;-75
2024/01/22 05:45:33;;;;;;;0.70;0.70;;;8.90;99.90;;;;;;5159085;27;20050;-74
2024/01/22 05:47:58;;;;;;;0.80;0.80;;;8.90;99.90;;;;;;5159463;27;20066;-74
2024/01/22 05:50:24;;;;;;;0.73;0.73;;;8.90;99.90;;;;;;5158934;27;20193;-74
2024/01/22 05:52:50;;;;;;;0.70;0.70;;;9.60;99.90;;;;;;5159043;27;20523;-75
2024/01/22 05:55:15;;;;;;;1.38;1.27;;;8.90;99.90;;;;;;5158911;27;20074;-75
2024/01/22 05:57:41;;;;;;;0.73;0.73;;;9.00;99.90;;;;;;5158498;27;20042;-77
2024/01/22 06:00:13;;;;;;;0.80;0.80;;;9.00;99.90;;;;;;5158633;27;20074;-76
2024/01/22 06:02:42;;;;;;;0.70;0.70;;;8.90;99.90;;;;;;5158804;27;20039;-75
2024/01/22 06:05:11;;;;;;;0.70;0.70;;;9.00;99.90;;;;;;5158754;27;20533;-72
2024/01/22 06:07:37;;;;;;;0.80;0.80;;;9.00;99.90;;;;;;5158599;27;20074;-72
2024/01/22 06:10:05;;;;;;;0.80;0.80;;;9.10;99.90;;;;;;5158603;27;20081;-73
2024/01/22 06:12:30;;;;;;;0.80;0.80;;;9.00;99.90;;;;;;5158577;27;20051;-73
2024/01/22 06:14:57;;;;;;;0.80;0.80;;;9.00;99.90;;;;;;5158497;27;20039;-74
2024/01/22 06:17:23;;;;;;;0.80;0.80;;;9.10;99.90;;;;;;5158844;27;20511;-76
2024/01/22 06:19:49;;;;;;;0.70;0.70;;;9.00;99.90;;;;;;5158349;27;20466;-73
2024/01/22 06:22:15;;;;;;;0.80;0.80;;;9.10;99.90;;;;;;5158365;27;20041;-73
2024/01/22 06:24:40;;;;;;;0.70;0.70;;;9.10;99.90;;;;;;5158394;27;20521;-80
2024/01/22 06:27:06;;;;;;;0.82;0.82;;;10.00;99.90;;;;;;5158202;27;20061;-73
2024/01/22 06:29:35;;;;;;;0.70;0.70;;;9.60;99.90;;;;;;5158710;27;20048;-73
2024/01/22 06:32:01;;;;;;;0.77;0.77;;;9.10;99.90;;;;;;5158171;27;20118;-75
2024/01/22 06:34:26;;;;;;;0.73;0.73;;;9.10;99.90;;;;;;5158614;27;20077;-74
2024/01/22 06:36:52;;;;;;;0.80;0.80;;;9.10;99.90;;;;;;5157405;27;20529;-75
2024/01/22 06:39:17;;;;;;;0.80;0.80;;;9.10;99.90;;;;;;5158041;27;20039;-74
2024/01/22 06:41:43;;;;;;;0.77;0.77;;;9.10;99.90;;;;;;5157880;27;20121;-77
2024/01/22 06:44:08;;;;;;;0.70;0.70;;;9.10;99.90;;;;;;5157990;27;20465;-75
2024/01/22 06:46:34;;;;;;;0.80;0.80;;;9.20;99.90;;;;;;5158335;27;20034;-75
2024/01/22 06:49:00;;;;;;;0.80;0.80;;;9.10;99.90;;;;;;5157901;27;20489;-76
2024/01/22 06:51:25;;;;;;;0.80;0.80;;;9.20;99.90;;;;;;5158037;27;20056;-73
2024/01/22 06:53:51;;;;;;;0.80;0.80;;;9.90;99.90;;;;;;5157786;27;20122;-75
2024/01/22 06:56:17;;;;;;;0.80;0.80;;;9.20;99.90;;;;;;5157720;27;20087;-77
2024/01/22 06:58:42;;;;;;;0.70;0.70;;;9.20;99.90;;;;;;5157669;27;20073;-77
2024/01/22 07:01:08;;;;;;;0.80;0.80;;;9.30;99.90;;;;;;5157546;27;20038;-76
2024/01/22 07:03:35;;;;;;;1.13;0.90;;;9.30;99.90;;;;;;5157527;27;20074;-82
2024/01/22 07:06:01;;;;;;;0.80;0.80;;;9.30;99.90;;;;;;5157494;27;20039;-73
2024/01/22 07:08:26;;;;;;;0.80;0.80;;;9.30;99.90;;;;;;5157495;27;20148;-73
2024/01/22 07:10:52;;;;;;;0.80;0.80;;;9.30;99.90;;;;;;5157563;27;20512;-79
2024/01/22 07:13:18;;;;;;;0.80;0.80;;;9.20;99.90;;;;;;5156998;27;20039;-74
2024/01/22 07:15:43;;;;;;;0.80;0.80;;;9.30;99.90;;;;;;5157359;27;20046;-80
2024/01/22 07:18:09;;;;;;;1.90;1.15;;;9.20;99.90;;;;;;5157241;27;20046;-74
2024/01/22 07:20:34;;;;;;;0.80;0.80;;;9.30;99.90;;;;;;5157201;27;20047;-78
2024/01/22 07:23:00;;;;;;;0.80;0.80;;;9.50;99.90;;;;;;5157130;27;20502;-75
2024/01/22 07:25:26;;;;;;;0.80;0.80;;;9.40;99.90;;;;;;5157169;27;20043;-78
2024/01/22 07:27:52;;;;;;;1.15;1.13;;;10.30;99.90;;;;;;5157042;27;20107;-75
2024/01/22 07:30:17;;;;;;;6.55;1.73;;;9.40;99.90;;;;;;5157056;27;20038;-80
2024/01/22 07:32:44;;;;;;;0.80;0.80;;;9.50;99.90;;;;;;5156983;27;20089;-77
2024/01/22 07:35:13;;;;;;;0.80;0.80;;;9.50;99.90;;;;;;5156876;27;20054;-79
2024/01/22 07:37:42;;;;;;;0.80;0.80;;;9.50;99.90;;;;;;5138379;27;20047;-79
2024/01/22 07:40:11;;;;;;;0.80;0.80;;;9.60;99.90;;;;;;5156707;27;20047;-80
2024/01/22 07:42:41;;;;;;;0.80;0.80;;;9.60;99.90;;;;;;5138728;27;20412;-71
2024/01/22 07:45:08;;;;;;;0.80;0.80;;;9.90;99.90;;;;;;5156689;27;20082;-73
2024/01/22 07:47:34;;;;;;;0.80;0.80;;;9.70;99.90;;;;;;5156288;27;20478;-75
2024/01/22 07:50:00;;;;;;;0.80;0.80;;;9.60;99.90;;;;;;5156530;27;20067;-75
2024/01/22 07:52:26;;;;;;;0.80;0.80;;;9.70;99.90;;;;;;5137693;27;20091;-75
2024/01/22 07:54:52;;;;;;;0.80;0.80;;;9.70;99.90;;;;;;5156309;27;20093;-75
2024/01/22 07:57:18;;;;;;;1.10;0.90;;;9.70;99.90;;;;;;5156509;27;20087;-75
2024/01/22 07:59:44;;;;;;;0.80;0.80;;;9.90;99.90;;;;;;5156420;27;20038;-76
2024/01/22 08:02:09;;;;;;;0.80;0.80;;;9.80;99.90;;;;;;5156106;27;20046;-73
2024/01/22 08:04:36;;;;;;;0.80;0.80;;;9.80;99.90;;;;;;5156347;27;20038;-79
2024/01/22 08:07:03;;;;;;;0.80;0.80;;;9.80;99.90;;;;;;5156014;27;20082;-78
2024/01/22 08:09:32;;;;;;;;;;;10.70;99.90;;;;;;5156661;27;20492;-75
2024/01/22 08:11:57;;;;;;;0.70;0.70;;;9.90;99.90;;;;;;5156189;27;19919;-74
2024/01/22 08:14:23;;;;;;;0.80;0.80;;;9.90;99.90;;;;;;5156576;27;20043;-73
2024/01/22 08:16:49;;;;;;;2.78;1.33;;;10.70;99.90;;;;;;5156137;27;20064;-75
2024/01/22 08:19:15;;;;;;;0.77;0.77;;;9.80;99.90;;;;;;5156291;27;20050;-71
2024/01/22 08:21:41;;;;;;;0.80;0.80;;;9.90;99.90;;;;;;5155943;27;20039;-73
2024/01/22 08:24:06;;;;;;;0.70;0.70;;;9.90;99.90;;;;;;5155990;27;20099;-76
2024/01/22 08:26:32;;;;;;;0.80;0.80;;;9.90;99.90;;;;;;5155776;27;20038;-74
2024/01/22 08:28:58;;;;;;;0.80;0.80;;;9.90;99.90;;;;;;5155860;27;20046;-75
2024/01/22 08:31:23;;;;;;;0.82;0.82;;;9.80;99.90;;;;;;5155956;27;20087;-73
2024/01/22 08:33:50;;;;;;;0.77;0.77;;;9.90;99.90;;;;;;5155864;27;20039;-71
2024/01/22 08:36:16;;;;;;;0.80;0.80;;;9.90;99.90;;;;;;5156002;27;20095;-71
2024/01/22 08:38:41;;;;;;;0.80;0.80;;;9.90;99.90;;;;;;5155526;27;20546;-76
2024/01/22 08:41:08;;;;;;;0.80;0.80;;;9.90;99.90;;;;;;5155204;27;20053;-76
2024/01/22 08:43:37;;;;;;;;;;;9.90;99.90;;;;;;5156288;27;20146;-77
2024/01/22 08:46:02;;;;;;;0.80;0.80;;;9.90;99.90;;;;;;5155626;27;19919;-77
2024/01/22 08:48:30;;;;;;;0.75;0.75;;;10.20;99.90;;;;;;5155593;27;20553;-77
2024/01/22 08:50:56;;;;;;;0.85;0.85;;;10.00;99.90;;;;;;5155142;27;20057;-76
2024/01/22 08:53:22;;;;;;;0.80;0.80;;;9.90;99.90;;;;;;5155345;27;20046;-75
2024/01/22 08:55:48;;;;;;;0.80;0.80;;;9.90;99.90;;;;;;5155494;27;20110;-77
2024/01/22 08:58:15;;;;;;;0.90;0.90;;;9.90;99.90;;;;;;5155457;27;20092;-76
2024/01/22 09:00:40;;;;;;;;;;;10.40;99.90;;;;;;5155376;27;20095;-76
2024/01/22 09:03:06;;;;;;;0.77;0.77;;;9.90;99.90;;;;;;5155427;27;19919;-76
2024/01/22 09:05:32;;;;;;;0.70;0.70;;;9.90;99.90;;;;;;5155430;27;20126;-75
2024/01/22 09:07:57;;;;;;;1.98;1.80;;;9.90;99.90;;;;;;5155037;27;20047;-72
2024/01/22 09:10:23;;;;;;;0.70;0.70;;;9.90;99.90;;;;;;5155304;27;20047;-74
2024/01/22 09:12:49;;;;;;;0.80;0.80;;;9.90;99.90;;;;;;5136741;27;20039;-75
2024/01/22 09:15:18;;;;;;;0.70;0.70;;;9.90;99.90;;;;;;5155316;27;20098;-74
2024/01/22 09:17:44;;;;;;;1.17;1.08;;;10.20;99.90;;;;;;5155085;27;20127;-75
2024/01/22 09:20:11;;;;;;;0.70;0.70;;;9.80;99.90;;;;;;5154570;27;20047;-74
2024/01/22 09:22:37;;;;;;;0.80;0.80;;;9.90;99.90;;;;;;5153843;27;20050;-74
2024/01/22 09:25:03;;;;;;;0.80;0.80;;;9.80;99.90;;;;;;5154553;27;20050;-75
2024/01/22 09:27:29;;;;;;;0.70;0.70;;;9.80;99.90;;;;;;5154526;27;20047;-75
2024/01/22 09:29:55;;;;;;;1.13;1.02;;;9.80;99.90;;;;;;5154224;27;20531;-75
2024/01/22 09:32:21;;;;;;;0.80;0.80;;;9.80;99.90;;;;;;5154410;27;20046;-74
2024/01/22 09:34:47;;;;;;;0.80;0.80;;;9.80;99.90;;;;;;5155181;27;20103;-75
2024/01/22 09:37:13;;;;;;;0.80;0.80;;;9.80;99.90;;;;;;5155083;27;20089;-75
2024/01/22 09:39:39;;;;;;;0.80;0.80;;;9.80;99.90;;;;;;5155044;27;20043;-74
2024/01/22 09:42:05;;;;;;;0.80;0.80;;;9.80;99.90;;;;;;5155074;27;20095;-75
2024/01/22 09:44:32;;;;;;;0.70;0.70;;;9.80;99.90;;;;;;5155088;27;20413;-74
2024/01/22 09:46:59;;;;;;;0.80;0.80;;;9.80;99.90;;;;;;5155045;27;20078;-75
2024/01/22 09:49:24;;;;;;;0.88;0.85;;;10.30;99.90;;;;;;5155007;27;20129;-74
2024/01/22 09:51:51;;;;;;;0.80;0.80;;;9.80;99.90;;;;;;5154540;27;20130;-75
2024/01/22 09:54:20;;;;;;;;;;;9.80;99.90;;;;;;5155110;27;20074;-74
2024/01/22 09:56:55;;;;;;;0.80;0.80;;;9.80;99.90;;;;;;5155124;27;20277;-75
2024/01/22 09:59:23;;;;;;;2.45;1.40;;;9.80;99.90;;;;;;5155177;27;20053;-74
2024/01/22 10:01:50;;;;;;;0.90;0.90;;;9.90;99.90;;;;;;5154776;27;20039;-74
2024/01/22 10:04:16;;;;;;;0.85;0.85;;;9.90;99.90;;;;;;5154599;27;20084;-75
2024/01/22 10:06:44;;;;;;;0.70;0.70;;;10.20;99.90;;;;;;5154580;27;20489;-76
2024/01/22 10:09:14;;;;;;;0.85;0.85;;;9.80;99.90;;;;;;5154800;27;20440;-74
2024/01/22 10:11:41;;;;;;;1.70;1.13;;;10.10;99.90;;;;;;5155033;27;20544;-75
2024/01/22 10:14:06;;;;;;;0.70;0.70;;;9.80;99.90;;;;;;5158204;27;20513;-75
2024/01/22 10:16:32;;;;;;;0.70;0.70;;;9.80;99.90;;;;;;5158607;27;20046;-74
2024/01/22 10:19:08;;;;;;;1.10;1.10;;;10.40;99.90;;;;;;5158560;27;20043;-78
2024/01/22 10:21:35;;;;;;;0.70;0.70;;;9.90;99.90;;;;;;5158311;27;20121;-73
2024/01/22 10:24:06;;;;;;;0.75;0.75;;;10.00;99.90;;;;;;5158328;27;20050;-71
2024/01/22 10:26:33;;;;;;;0.80;0.80;;;9.80;99.90;;;;;;5158607;27;20076;-71
2024/01/22 10:29:17;;;;;;;2.67;1.88;;;9.90;99.90;;;;;;5158223;27;20160;-71
2024/01/22 10:31:59;;;;;;;1.35;1.27;;;9.80;99.90;;;;;;5158063;27;20391;-73
2024/01/22 10:34:30;;;;;;;0.90;0.90;;;9.90;99.90;;;;;;5158559;27;20047;-73
2024/01/22 10:37:08;;;;;;;0.88;0.80;;;9.90;99.90;;;;;;5158128;27;20086;-73
2024/01/22 10:39:35;;;;;;;1.65;1.45;;;9.90;99.90;;;;;;5158247;27;20092;-73
2024/01/22 10:42:07;;;;;;;;;;;9.90;99.90;;;;;;5158153;27;20478;-75
2024/01/22 10:44:34;;;;;;;0.80;0.80;;;9.90;99.90;;;;;;5157966;27;19919;-74
2024/01/22 10:47:03;;;;;;;0.80;0.80;;;9.90;99.90;;;;;;5157904;27;20095;-74
2024/01/22 10:49:29;;;;;;;0.70;0.70;;;10.20;99.90;;;;;;5158153;27;20376;-73
2024/01/22 10:52:05;;;;;;;0.70;0.70;;;9.90;99.90;;;;;;5157666;27;20051;-77
2024/01/22 10:54:32;;;;;;;1.02;1.02;;;9.90;99.90;;;;;;5157815;27;20138;-74
2024/01/22 10:57:05;;;;;;;6.60;1.17;;;10.60;99.90;;;;;;5157627;27;20043;-75
2024/01/22 10:59:39;;;;;;;0.70;0.70;;;9.90;99.90;;;;;;5157861;27;20494;-73
2024/01/22 11:02:15;;;;;;;3.25;1.27;;;9.80;99.90;;;;;;5157520;27;20049;-74
2024/01/22 11:04:45;;;;;;;0.93;0.93;;;9.90;99.90;;;;;;5157304;27;20498;-74
2024/01/22 11:07:11;;;;;;;0.80;0.80;;;9.80;99.90;;;;;;5157516;27;20486;-75
2024/01/22 11:09:38;;;;;;;1.30;1.20;;;10.00;99.90;;;;;;5157150;27;20112;-74
2024/01/22 11:12:11;;;;;;;2.65;1.45;;;9.70;99.90;;;;;;5158010;27;20047;-74
2024/01/22 11:14:39;;;;;;;0.70;0.70;;;9.90;99.90;;;;;;5157681;27;20038;-74
2024/01/22 11:17:10;;;;;;;1.40;1.30;;;9.90;99.90;;;;;;5157391;27;20402;-74
2024/01/22 11:19:36;;;;;;;0.80;0.80;;;9.80;99.90;;;;;;5157659;27;20470;-76
2024/01/22 11:22:22;;;;;;;0.70;0.70;;;9.90;99.90;;;;;;5157040;27;20486;-74
2024/01/22 11:25:03;;;;;;;0.70;0.70;;;9.80;99.90;;;;;;5142742;27;20386;-72
2024/01/22 11:27:42;;;;;;;0.80;0.80;;;9.90;99.90;;;;;;5149133;27;20125;-73
2024/01/22 11:30:23;;;;;;;2.25;2.05;;;10.20;99.90;;;;;;5157237;27;20042;-73
2024/01/22 11:32:49;;;;;;;0.90;0.90;;;10.00;99.90;;;;;;5157343;27;20042;-72
2024/01/22 11:35:34;;;;;;;0.80;0.80;;;10.00;99.90;;;;;;5157312;27;20053;-72
2024/01/22 11:38:01;;;;;;;0.70;0.70;;;10.00;99.90;;;;;;5156680;27;20283;-71
2024/01/22 11:40:54;;;;;;;1.55;1.45;;;10.00;99.90;;;;;;5156744;27;20395;-71
2024/01/22 11:43:22;;;;;;;0.88;0.88;;;10.10;99.90;;;;;;5153662;27;20470;-70
2024/01/22 11:45:51;;;;;;;0.80;0.80;;;10.00;99.90;;;;;;5156557;27;20130;-72
2024/01/22 11:48:21;;;;;;;1.85;1.08;;;10.70;99.90;;;;;;5156755;27;20122;-72
2024/01/22 11:50:58;;;;;;;0.70;0.70;;;10.00;99.90;;;;;;5156565;27;20054;-74
2024/01/22 11:53:25;;;;;;;1.50;0.98;;;10.00;99.90;;;;;;5156566;27;20055;-71
2024/01/22 11:56:16;;;;;;;1.60;1.50;;;10.30;99.90;;;;;;5157053;27;20046;-71
2024/01/22 11:58:42;;;;;;;2.90;1.10;;;10.10;99.90;;;;;;5151639;27;20493;-73
2024/01/22 12:01:11;;;;;;;0.90;0.88;;;10.10;99.90;;;;;;5156369;27;20065;-69
2024/01/22 12:03:37;;;;;;;6.93;1.48;;;10.10;99.90;;;;;;5156333;27;20130;-72
2024/01/22 12:06:05;;;;;;;0.98;0.98;;;10.00;99.90;;;;;;5138069;27;20039;-72
2024/01/22 12:08:32;;;;;;;2.10;1.92;;;10.10;99.90;;;;;;5156136;27;20594;-72
2024/01/22 12:11:12;;;;;;;0.80;0.80;;;9.90;99.90;;;;;;5156207;27;20486;-73
2024/01/22 12:13:40;;;;;;;0.93;0.93;;;10.10;99.90;;;;;;5156536;27;20049;-72
2024/01/22 12:16:26;;;;;;;0.90;0.90;;;10.60;99.90;;;;;;5156136;27;20031;-72
2024/01/22 12:18:52;;;;;;;0.80;0.80;;;10.00;99.90;;;;;;5155829;27;20490;-73
2024/01/22 12:21:17;;;;;;;1.48;1.38;;;10.00;99.90;;;;;;5156102;27;20034;-73
2024/01/22 12:23:43;;;;;;;0.80;0.80;;;10.00;99.90;;;;;;5156032;27;20047;-73
2024/01/22 12:26:13;;;;;;;0.80;0.80;;;10.00;99.90;;;;;;5156255;27;20038;-72
2024/01/22 12:28:39;;;;;;;9.23;2.03;;;10.00;99.90;;;;;;5137460;27;20039;-69
2024/01/22 12:31:05;;;;;;;1.42;1.33;;;10.00;99.90;;;;;;5155516;27;20039;-73
2024/01/22 12:33:32;;;;;;;0.80;0.80;;;10.00;99.90;;;;;;5156693;27;20050;-74
2024/01/22 12:36:11;;;;;;;0.80;0.80;;;10.00;99.90;;;;;;5155069;27;20078;-72
2024/01/22 12:38:53;;;;;;;0.80;0.80;;;10.00;99.90;;;;;;5155998;27;20039;-74
2024/01/22 12:41:21;;;;;;;0.90;0.90;;;10.00;99.90;;;;;;5155595;27;20042;-75
2024/01/22 12:43:47;;;;;;;0.80;0.80;;;10.00;99.90;;;;;;5156141;27;20371;-72
2024/01/22 12:46:20;;;;;;;3.97;1.52;;;10.20;99.90;;;;;;5155659;27;20046;-73
2024/01/22 12:48:46;;;;;;;0.90;0.90;;;9.90;99.90;;;;;;5155826;27;20134;-74
2024/01/22 12:51:13;;;;;;;0.70;0.70;;;9.90;99.90;;;;;;5154821;27;20059;-73
2024/01/22 12:53:41;;;;;;;0.80;0.80;;;10.20;99.90;;;;;;5154678;27;20042;-72
2024/01/22 12:56:07;;;;;;;0.70;0.70;;;9.80;99.90;;;;;;5155208;27;20091;-73
2024/01/22 12:58:36;;;;;;;0.90;0.90;;;10.20;99.90;;;;;;5155327;27;20046;-74